Time;durP1;ratioP1;P1;durP2;ratioP2;P2;SDS_P1;SDS_P2;PMS_P1;PMS_P2;Temp;Humidity;BMP_temperature;BMP_pressure;BME280_temperature;BME280_humidity;BME280_pressure;Samples;Min_cycle;Max_cycle;Signal;HPM_P1;HPM_P2
2024/02/29 00:02:08;;;;;;;22.50;14.53;;;3.70;99.90;;;;;;5046089;28;20208;-60
2024/02/29 00:04:35;;;;;;;24.40;16.23;;;3.70;99.90;;;;;;5045453;28;20213;-60
2024/02/29 00:07:02;;;;;;;23.57;14.93;;;3.60;99.90;;;;;;5042242;28;20238;-60
2024/02/29 00:09:30;;;;;;;25.20;14.37;;;3.60;99.90;;;;;;5043036;28;20595;-60
2024/02/29 00:11:58;;;;;;;24.90;15.37;;;3.60;99.90;;;;;;5034434;28;20209;-61
2024/02/29 00:14:25;;;;;;;24.70;15.20;;;3.60;99.90;;;;;;5043116;28;20232;-61
2024/02/29 00:16:51;;;;;;;25.83;15.07;;;3.60;99.90;;;;;;5045462;28;20280;-62
2024/02/29 00:19:18;;;;;;;26.63;15.93;;;3.60;99.90;;;;;;5046027;28;20228;-61
2024/02/29 00:21:46;;;;;;;24.73;14.17;;;3.50;99.90;;;;;;5044243;28;20567;-61
2024/02/29 00:24:12;;;;;;;26.37;16.27;;;3.50;99.90;;;;;;5042679;28;20211;-61
2024/02/29 00:26:40;;;;;;;23.50;15.27;;;3.40;99.90;;;;;;5043215;28;20238;-60
2024/02/29 00:29:06;;;;;;;28.80;16.77;;;3.40;99.90;;;;;;5045625;28;20233;-61
2024/02/29 00:31:33;;;;;;;25.37;15.77;;;3.40;99.90;;;;;;5045008;28;20209;-61
2024/02/29 00:34:00;;;;;;;25.23;15.80;;;3.40;99.90;;;;;;5042194;28;20211;-59
2024/02/29 00:36:27;;;;;;;23.37;14.90;;;3.50;99.90;;;;;;5042116;28;20222;-60
2024/02/29 00:38:55;;;;;;;23.30;14.97;;;3.50;99.90;;;;;;5044787;28;20225;-59
2024/02/29 00:41:21;;;;;;;25.90;15.73;;;3.50;99.90;;;;;;5045405;28;20217;-58
2024/02/29 00:43:49;;;;;;;22.43;15.50;;;3.50;99.90;;;;;;5042855;28;20231;-59
2024/02/29 00:46:16;;;;;;;24.23;15.47;;;3.60;99.90;;;;;;5042028;28;20222;-59
2024/02/29 00:48:43;;;;;;;24.07;15.30;;;3.60;99.90;;;;;;5043272;28;20229;-60
2024/02/29 00:51:09;;;;;;;23.67;15.93;;;3.60;99.90;;;;;;5044604;28;20205;-60
2024/02/29 00:53:36;;;;;;;24.33;15.57;;;3.60;99.90;;;;;;5044886;28;20210;-60
2024/02/29 00:56:03;;;;;;;24.37;15.80;;;3.60;99.90;;;;;;5042421;28;20226;-60
2024/02/29 00:58:29;;;;;;;23.63;15.13;;;3.60;99.90;;;;;;5042321;28;20227;-61
2024/02/29 01:00:57;;;;;;;26.37;15.70;;;3.60;99.90;;;;;;5044926;28;20201;-61
2024/02/29 01:03:24;;;;;;;24.80;16.33;;;3.50;99.90;;;;;;5045377;28;20202;-60
2024/02/29 01:05:50;;;;;;;26.47;15.63;;;3.50;99.90;;;;;;5042655;28;20295;-61
2024/02/29 01:08:17;;;;;;;26.13;15.40;;;3.50;99.90;;;;;;5041628;28;20206;-61
2024/02/29 01:10:44;;;;;;;26.73;16.27;;;3.40;99.90;;;;;;5043360;28;20700;-60
2024/02/29 01:13:10;;;;;;;21.83;15.10;;;3.20;99.90;;;;;;5045171;28;20259;-59
2024/02/29 01:15:37;;;;;;;25.63;15.63;;;3.20;99.90;;;;;;5044536;28;21014;-59
2024/02/29 01:18:07;;;;;;;26.27;15.30;;;3.20;99.90;;;;;;5041088;28;20226;-60
2024/02/29 01:20:33;;;;;;;22.97;14.87;;;3.20;99.90;;;;;;5041255;28;20202;-59
2024/02/29 01:23:00;;;;;;;24.63;15.27;;;3.20;99.90;;;;;;5032871;28;20260;-59
2024/02/29 01:25:27;;;;;;;25.73;16.40;;;3.20;99.90;;;;;;5040894;28;20570;-60
2024/02/29 01:27:54;;;;;;;24.43;15.43;;;3.20;99.90;;;;;;5043421;28;20264;-60
2024/02/29 01:30:21;;;;;;;25.10;15.97;;;3.20;99.90;;;;;;5044590;28;20210;-59
2024/02/29 01:32:48;;;;;;;23.33;16.13;;;3.20;99.90;;;;;;5042179;28;20236;-59
2024/02/29 01:35:16;;;;;;;27.17;17.20;;;3.20;99.90;;;;;;5040983;28;20237;-58
2024/02/29 01:37:42;;;;;;;29.73;16.07;;;3.20;99.90;;;;;;5041731;28;20276;-58
2024/02/29 01:40:10;;;;;;;24.27;15.90;;;3.20;99.90;;;;;;5044393;28;20304;-60
2024/02/29 01:42:41;;;;;;;28.73;16.53;;;3.20;99.90;;;;;;5043528;28;20292;-58
2024/02/29 01:45:08;;;;;;;27.50;16.50;;;3.20;99.90;;;;;;5040921;28;20222;-59
2024/02/29 01:47:35;;;;;;;23.47;15.97;;;3.20;99.90;;;;;;5040695;28;20213;-59
2024/02/29 01:50:03;;;;;;;24.13;15.20;;;3.20;99.90;;;;;;5044050;28;20221;-61
2024/02/29 01:52:33;;;;;;;25.00;15.73;;;3.10;99.90;;;;;;5043770;28;20301;-61
2024/02/29 01:55:02;;;;;;;23.43;15.00;;;3.10;99.90;;;;;;5043828;28;20206;-59
2024/02/29 01:57:29;;;;;;;25.93;16.00;;;3.10;99.90;;;;;;5043908;28;20206;-59
2024/02/29 01:59:56;;;;;;;23.90;16.60;;;3.10;99.90;;;;;;5041060;28;20221;-60
2024/02/29 02:02:23;;;;;;;24.20;16.00;;;3.10;99.90;;;;;;5039748;28;20283;-60
2024/02/29 02:04:50;;;;;;;22.83;15.20;;;3.10;99.90;;;;;;5042028;28;20206;-61
2024/02/29 02:07:16;;;;;;;24.37;15.87;;;3.10;99.90;;;;;;5043672;28;20671;-60
2024/02/29 02:09:45;;;;;;;26.17;16.10;;;3.10;99.90;;;;;;5042385;28;20259;-60
2024/02/29 02:12:12;;;;;;;27.27;16.50;;;3.20;99.90;;;;;;5039985;28;20210;-60
2024/02/29 02:14:39;;;;;;;26.00;16.30;;;3.20;99.90;;;;;;5040709;28;20202;-60
2024/02/29 02:17:06;;;;;;;25.00;16.47;;;3.10;99.90;;;;;;5043571;28;20675;-61
2024/02/29 02:19:33;;;;;;;24.73;16.30;;;3.20;99.90;;;;;;5043461;28;20221;-60
2024/02/29 02:22:04;;;;;;;23.93;15.57;;;3.20;99.90;;;;;;5039797;28;20604;-59
2024/02/29 02:24:31;;;;;;;24.73;16.43;;;3.20;99.90;;;;;;5040192;28;20638;-60
2024/02/29 02:26:57;;;;;;;26.13;16.30;;;3.20;99.90;;;;;;5042957;28;20225;-59
2024/02/29 02:29:24;;;;;;;28.63;17.10;;;3.20;99.90;;;;;;5043377;28;20236;-60
2024/02/29 02:31:51;;;;;;;24.90;16.23;;;3.20;99.90;;;;;;5041046;28;20201;-60
2024/02/29 02:34:18;;;;;;;22.47;15.33;;;3.10;99.90;;;;;;5040025;28;20210;-58
2024/02/29 02:36:44;;;;;;;25.40;16.97;;;3.20;99.90;;;;;;5040668;28;20245;-60
2024/02/29 02:39:12;;;;;;;27.67;16.90;;;3.10;99.90;;;;;;5043639;28;20221;-60
2024/02/29 02:41:40;;;;;;;28.60;17.70;;;3.00;99.90;;;;;;5042713;28;20255;-60
2024/02/29 02:44:07;;;;;;;27.50;17.30;;;2.90;99.90;;;;;;5039809;28;20293;-60
2024/02/29 02:46:34;;;;;;;27.77;17.77;;;2.90;99.90;;;;;;5039902;28;20280;-59
2024/02/29 02:49:00;;;;;;;25.30;16.90;;;2.90;99.90;;;;;;5043154;28;20206;-59
2024/02/29 02:51:27;;;;;;;24.47;16.87;;;2.90;99.90;;;;;;5043074;28;20209;-60
2024/02/29 02:53:54;;;;;;;27.47;17.93;;;2.90;99.90;;;;;;5040950;28;20232;-59
2024/02/29 02:56:22;;;;;;;25.47;17.43;;;2.90;99.90;;;;;;5041849;28;20234;-59
2024/02/29 02:58:48;;;;;;;27.33;17.63;;;2.90;99.90;;;;;;5042247;28;20494;-59
2024/02/29 03:01:16;;;;;;;25.47;16.73;;;3.00;99.90;;;;;;5043740;28;20251;-60
2024/02/29 03:03:42;;;;;;;25.33;16.73;;;2.80;99.90;;;;;;5043037;28;20202;-59
2024/02/29 03:06:11;;;;;;;27.67;17.80;;;2.90;99.90;;;;;;5040317;28;20257;-59
2024/02/29 03:08:37;;;;;;;28.07;17.27;;;2.90;99.90;;;;;;5041647;28;20202;-59
2024/02/29 03:11:04;;;;;;;24.67;16.80;;;2.90;99.90;;;;;;5044432;28;20213;-58
2024/02/29 03:13:32;;;;;;;26.30;16.43;;;2.80;99.90;;;;;;5044723;28;20228;-60
2024/02/29 03:15:59;;;;;;;25.90;17.07;;;2.90;99.90;;;;;;5044253;28;20238;-59
2024/02/29 03:18:25;;;;;;;26.93;16.47;;;2.80;99.90;;;;;;5043947;28;20234;-60
2024/02/29 03:20:52;;;;;;;25.13;16.70;;;2.80;99.90;;;;;;5045548;28;20798;-60
2024/02/29 03:23:20;;;;;;;27.03;17.07;;;2.80;99.90;;;;;;5046421;28;20201;-59
2024/02/29 03:25:47;;;;;;;26.30;17.13;;;2.70;99.90;;;;;;5045178;28;20654;-59
2024/02/29 03:28:13;;;;;;;28.07;16.87;;;2.70;99.90;;;;;;5043134;28;20615;-60
2024/02/29 03:30:41;;;;;;;26.63;16.43;;;2.70;99.90;;;;;;5043444;28;20587;-59
2024/02/29 03:33:08;;;;;;;27.43;16.60;;;2.70;99.90;;;;;;5046264;28;20201;-60
2024/02/29 03:35:35;;;;;;;25.13;16.50;;;2.60;99.90;;;;;;5046424;28;20282;-60
2024/02/29 03:38:02;;;;;;;23.50;16.13;;;2.60;99.90;;;;;;5043412;28;20213;-61
2024/02/29 03:40:29;;;;;;;26.40;16.33;;;2.50;99.90;;;;;;5042966;28;20206;-59
2024/02/29 03:42:56;;;;;;;25.87;17.03;;;2.50;99.90;;;;;;5044896;28;20297;-61
2024/02/29 03:45:22;;;;;;;26.73;16.70;;;2.40;99.90;;;;;;5046012;28;20320;-60
2024/02/29 03:47:50;;;;;;;29.03;17.17;;;2.50;99.90;;;;;;5044801;28;20210;-59
2024/02/29 03:50:17;;;;;;;29.67;18.77;;;2.40;99.90;;;;;;5042893;28;20256;-60
2024/02/29 03:52:44;;;;;;;28.57;17.67;;;2.50;99.90;;;;;;5043123;28;20210;-60
2024/02/29 03:55:11;;;;;;;27.37;17.50;;;2.50;99.90;;;;;;5046241;28;20229;-60
2024/02/29 03:57:37;;;;;;;27.50;16.97;;;2.50;99.90;;;;;;5046112;28;20267;-60
2024/02/29 04:00:10;;;;;;;27.27;16.77;;;2.50;99.90;;;;;;5034356;28;20218;-60
2024/02/29 04:02:37;;;;;;;27.37;17.23;;;2.50;99.90;;;;;;5042350;28;20241;-61
2024/02/29 04:05:06;;;;;;;25.93;17.43;;;2.40;99.90;;;;;;5058951;22;20597;-59
2024/02/29 04:07:36;;;;;;;26.70;16.80;;;2.40;99.90;;;;;;5052973;28;20271;-60
2024/02/29 04:10:03;;;;;;;26.87;16.93;;;2.50;99.90;;;;;;5053846;28;20198;-60
2024/02/29 04:12:30;;;;;;;28.03;17.37;;;2.60;99.90;;;;;;5053508;28;20641;-59
2024/02/29 04:14:56;;;;;;;27.00;17.60;;;2.60;99.90;;;;;;5053955;28;20206;-60
2024/02/29 04:17:23;;;;;;;25.03;16.00;;;2.50;99.90;;;;;;5045453;28;20652;-59
2024/02/29 04:19:50;;;;;;;27.60;17.83;;;2.60;99.90;;;;;;5043891;28;20228;-61
2024/02/29 04:22:18;;;;;;;28.67;17.03;;;2.60;99.90;;;;;;5041944;28;20214;-59
2024/02/29 04:24:45;;;;;;;23.30;16.37;;;2.70;99.90;;;;;;5042448;28;20203;-59
2024/02/29 04:27:11;;;;;;;24.30;16.23;;;2.70;99.90;;;;;;5045112;28;20844;-59
2024/02/29 04:29:38;;;;;;;26.70;17.10;;;2.70;99.90;;;;;;5045534;28;20197;-59
2024/02/29 04:32:07;;;;;;;25.70;16.63;;;2.70;99.90;;;;;;5033451;28;20562;-60
2024/02/29 04:34:33;;;;;;;27.73;17.63;;;2.60;99.90;;;;;;5041808;28;20741;-60
2024/02/29 04:37:00;;;;;;;29.33;17.93;;;2.70;99.90;;;;;;5044390;28;20229;-59
2024/02/29 04:39:28;;;;;;;27.40;16.97;;;2.70;99.90;;;;;;5044962;28;20241;-61
2024/02/29 04:41:55;;;;;;;28.80;17.93;;;2.70;99.90;;;;;;5042710;28;20202;-61
2024/02/29 04:44:21;;;;;;;26.87;18.43;;;2.70;99.90;;;;;;5041609;28;20206;-59
2024/02/29 04:46:48;;;;;;;31.53;18.77;;;2.70;99.90;;;;;;5042452;28;20280;-59
2024/02/29 04:49:14;;;;;;;26.80;17.73;;;2.70;99.90;;;;;;5044981;28;20206;-59
2024/02/29 04:51:41;;;;;;;29.57;18.07;;;2.70;99.90;;;;;;5044430;28;20255;-60
2024/02/29 04:54:08;;;;;;;30.50;19.70;;;2.70;99.90;;;;;;5041377;28;20198;-59
2024/02/29 04:56:36;;;;;;;29.33;18.17;;;2.70;99.90;;;;;;5041439;28;20222;-59
2024/02/29 04:59:04;;;;;;;31.40;18.13;;;2.70;99.90;;;;;;5044223;28;20217;-60
2024/02/29 05:01:31;;;;;;;28.53;17.33;;;2.70;99.90;;;;;;5044511;28;20667;-59
2024/02/29 05:03:58;;;;;;;30.10;18.03;;;2.70;99.90;;;;;;5042197;28;20208;-59
2024/02/29 05:06:24;;;;;;;26.97;18.07;;;2.70;99.90;;;;;;5041245;28;20233;-60
2024/02/29 05:08:51;;;;;;;26.63;17.97;;;2.70;99.90;;;;;;5042401;28;20202;-59
2024/02/29 05:11:17;;;;;;;27.67;17.87;;;2.70;99.90;;;;;;5044282;28;20605;-60
2024/02/29 05:13:45;;;;;;;27.37;18.23;;;2.60;99.90;;;;;;5043588;28;20205;-59
2024/02/29 05:16:16;;;;;;;28.43;18.13;;;2.60;99.90;;;;;;5040914;28;20222;-59
2024/02/29 05:18:42;;;;;;;27.20;17.90;;;2.60;99.90;;;;;;5040800;28;20690;-59
2024/02/29 05:21:10;;;;;;;31.40;17.87;;;2.60;99.90;;;;;;5044228;28;20208;-60
2024/02/29 05:23:36;;;;;;;31.63;19.33;;;2.60;99.90;;;;;;5044182;28;20229;-59
2024/02/29 05:26:04;;;;;;;31.33;17.93;;;2.60;99.90;;;;;;5041208;28;20218;-59
2024/02/29 05:28:30;;;;;;;29.93;17.87;;;2.60;99.90;;;;;;5040808;28;20328;-60
2024/02/29 05:30:59;;;;;;;28.53;17.53;;;2.60;99.90;;;;;;5042880;28;20214;-59
2024/02/29 05:33:26;;;;;;;27.23;17.90;;;2.70;99.90;;;;;;5043878;28;20208;-60
2024/02/29 05:35:53;;;;;;;31.63;19.63;;;2.60;99.90;;;;;;5041813;28;20634;-59
2024/02/29 05:38:19;;;;;;;28.10;18.07;;;2.60;99.90;;;;;;5041019;28;20229;-59
2024/02/29 05:40:47;;;;;;;31.50;18.37;;;2.60;99.90;;;;;;5041040;28;20222;-60
2024/02/29 05:43:14;;;;;;;32.43;18.90;;;2.60;99.90;;;;;;5043672;28;20233;-59
2024/02/29 05:45:41;;;;;;;31.93;18.07;;;2.50;99.90;;;;;;5043825;28;20712;-60
2024/02/29 05:48:09;;;;;;;31.70;18.87;;;2.60;99.90;;;;;;5032253;28;20592;-59
2024/02/29 05:50:36;;;;;;;30.87;18.20;;;2.60;99.90;;;;;;5040306;28;20206;-60
2024/02/29 05:53:03;;;;;;;32.67;19.00;;;2.60;99.90;;;;;;5042852;28;20687;-59
2024/02/29 05:55:29;;;;;;;29.43;19.20;;;2.60;99.90;;;;;;5043855;28;20256;-59
2024/02/29 05:57:56;;;;;;;33.23;19.17;;;2.60;99.90;;;;;;5041642;28;20213;-59
2024/02/29 06:00:23;;;;;;;33.23;20.13;;;2.60;99.90;;;;;;5039973;28;20226;-59
2024/02/29 06:02:49;;;;;;;31.57;19.53;;;2.60;99.90;;;;;;5040688;28;20289;-59
2024/02/29 06:05:19;;;;;;;31.60;19.97;;;2.60;99.90;;;;;;5043402;28;20685;-59
2024/02/29 06:07:46;;;;;;;30.07;19.20;;;2.60;99.90;;;;;;5043204;28;20212;-60
2024/02/29 06:10:13;;;;;;;32.17;19.50;;;2.60;99.90;;;;;;5040406;28;20199;-60
2024/02/29 06:12:39;;;;;;;33.60;19.70;;;2.60;99.90;;;;;;5040372;28;20202;-62
2024/02/29 06:15:08;;;;;;;36.27;20.00;;;2.60;99.90;;;;;;5043445;28;20589;-62
2024/02/29 06:17:34;;;;;;;37.93;21.00;;;2.60;99.90;;;;;;5043632;28;20205;-62
2024/02/29 06:20:01;;;;;;;30.30;18.43;;;2.70;99.90;;;;;;5041027;28;20721;-62
2024/02/29 06:22:29;;;;;;;32.47;19.40;;;2.80;99.90;;;;;;5039897;28;20252;-62
2024/02/29 06:24:56;;;;;;;32.13;18.93;;;2.90;99.90;;;;;;5041955;28;20626;-63
2024/02/29 06:27:23;;;;;;;31.47;19.00;;;3.00;99.90;;;;;;5043609;28;20217;-63
2024/02/29 06:29:50;;;;;;;31.87;19.47;;;3.00;99.90;;;;;;5042299;28;20209;-63
2024/02/29 06:32:16;;;;;;;36.97;20.47;;;3.00;99.90;;;;;;5039462;28;20738;-64
2024/02/29 06:34:43;;;;;;;33.43;20.57;;;3.10;99.90;;;;;;5039766;28;20738;-63
2024/02/29 06:37:11;;;;;;;38.23;21.93;;;3.20;99.90;;;;;;5043360;28;20226;-63
2024/02/29 06:39:39;;;;;;;37.60;21.27;;;3.30;99.90;;;;;;5043392;28;20249;-63
2024/02/29 06:42:06;;;;;;;38.63;21.17;;;3.40;99.90;;;;;;5039666;28;20203;-63
2024/02/29 06:44:33;;;;;;;33.83;20.30;;;3.60;99.90;;;;;;5039510;28;20202;-62
2024/02/29 06:46:59;;;;;;;33.47;20.13;;;3.70;99.90;;;;;;5042323;28;20229;-62
2024/02/29 06:49:26;;;;;;;37.47;19.90;;;3.70;99.90;;;;;;5047109;28;20247;-62
2024/02/29 06:51:53;;;;;;;36.93;21.23;;;3.80;99.90;;;;;;5045577;28;20202;-63
2024/02/29 06:54:19;;;;;;;32.27;20.80;;;4.00;99.90;;;;;;5043696;28;20332;-64
2024/02/29 06:56:47;;;;;;;33.77;20.03;;;4.30;99.90;;;;;;5043900;28;20275;-62
2024/02/29 06:59:14;;;;;;;31.47;19.70;;;4.70;99.90;;;;;;5046754;28;20198;-62
2024/02/29 07:01:41;;;;;;;33.30;20.30;;;5.00;99.90;;;;;;5046862;28;20202;-63
2024/02/29 07:04:07;;;;;;;32.63;18.57;;;5.30;99.90;;;;;;5043734;28;20202;-62
2024/02/29 07:06:34;;;;;;;28.93;18.60;;;5.60;99.90;;;;;;5043212;28;20276;-62
2024/02/29 07:09:02;;;;;;;31.10;18.10;;;5.90;99.90;;;;;;5045430;28;20735;-62
2024/02/29 07:11:30;;;;;;;29.10;18.20;;;6.20;99.90;;;;;;5046397;28;20680;-63
2024/02/29 07:13:59;;;;;;;27.57;17.83;;;6.50;99.90;;;;;;5045152;28;20201;-63
2024/02/29 07:16:26;;;;;;;27.77;17.67;;;6.90;99.90;;;;;;5040993;28;20712;-63
2024/02/29 07:18:52;;;;;;;26.30;16.83;;;7.40;99.90;;;;;;5043076;28;20202;-63
2024/02/29 07:21:19;;;;;;;25.03;16.90;;;7.90;99.90;;;;;;5042995;28;20214;-63
2024/02/29 07:23:46;;;;;;;27.70;17.23;;;8.40;99.90;;;;;;5042639;28;20198;-65
2024/02/29 07:26:13;;;;;;;26.93;17.27;;;8.70;99.90;;;;;;5034780;28;20716;-64
2024/02/29 07:28:39;;;;;;;29.93;17.03;;;8.90;99.90;;;;;;5034761;28;20569;-64
2024/02/29 07:31:07;;;;;;;25.83;17.10;;;9.20;99.90;;;;;;5035134;28;20202;-64
2024/02/29 07:33:35;;;;;;;25.30;17.43;;;9.50;99.90;;;;;;5034905;28;20296;-64
2024/02/29 07:36:02;;;;;;;25.63;17.73;;;9.70;99.90;;;;;;5034374;28;20790;-62
2024/02/29 07:38:28;;;;;;;24.77;17.07;;;9.70;99.90;;;;;;5034648;28;20225;-64
2024/02/29 07:40:55;;;;;;;26.67;18.30;;;9.60;99.90;;;;;;5034411;28;20226;-64
2024/02/29 07:43:22;;;;;;;30.57;18.77;;;9.50;99.90;;;;;;5034560;28;20218;-64
2024/02/29 07:45:48;;;;;;;28.80;18.93;;;9.20;99.90;;;;;;5034494;28;20784;-64
2024/02/29 07:48:16;;;;;;;30.10;19.10;;;8.80;99.90;;;;;;5034478;28;20684;-64
2024/02/29 07:50:43;;;;;;;29.97;19.00;;;8.40;99.90;;;;;;5034588;28;20632;-64
2024/02/29 07:53:10;;;;;;;31.27;19.80;;;7.80;99.90;;;;;;5034145;28;20206;-64
2024/02/29 07:55:36;;;;;;;29.97;19.10;;;7.60;99.90;;;;;;5034519;28;20233;-63
2024/02/29 07:58:05;;;;;;;29.43;18.97;;;7.40;99.90;;;;;;5034593;28;20210;-63
2024/02/29 08:00:31;;;;;;;31.30;20.03;;;7.50;99.90;;;;;;5033238;28;20316;-64
2024/02/29 08:02:58;;;;;;;30.10;18.80;;;7.60;99.90;;;;;;5034132;28;20207;-63
2024/02/29 08:05:26;;;;;;;29.90;19.97;;;7.70;99.90;;;;;;5033918;28;20238;-64
2024/02/29 08:07:53;;;;;;;29.53;19.40;;;7.80;99.90;;;;;;5034051;28;20237;-64
2024/02/29 08:10:19;;;;;;;37.67;24.63;;;8.00;99.90;;;;;;5034294;28;20305;-64
2024/02/29 08:12:45;;;;;;;39.53;27.57;;;8.10;99.90;;;;;;5033902;28;20716;-66
2024/02/29 08:15:13;;;;;;;31.67;20.93;;;8.20;99.90;;;;;;5033782;28;20675;-63
2024/02/29 08:17:40;;;;;;;31.70;20.70;;;8.40;99.90;;;;;;5034078;28;20229;-65
2024/02/29 08:20:07;;;;;;;39.40;27.53;;;8.40;99.90;;;;;;5034642;28;20734;-63
2024/02/29 08:22:35;;;;;;;33.83;20.73;;;8.40;99.90;;;;;;5033734;28;20662;-64
2024/02/29 08:25:02;;;;;;;32.90;21.20;;;8.50;99.90;;;;;;5033960;28;20206;-64
2024/02/29 08:27:29;;;;;;;32.10;21.17;;;8.60;99.90;;;;;;5033987;28;20210;-62
2024/02/29 08:29:55;;;;;;;35.40;20.93;;;8.70;99.90;;;;;;5034027;28;20207;-63
2024/02/29 08:32:23;;;;;;;31.53;20.93;;;8.90;99.90;;;;;;5033565;28;20214;-63
2024/02/29 08:34:49;;;;;;;33.13;21.57;;;9.00;99.90;;;;;;5033605;28;20252;-62
2024/02/29 08:37:16;;;;;;;36.50;22.23;;;9.10;99.90;;;;;;5033642;28;20585;-62
2024/02/29 08:39:44;;;;;;;37.17;21.87;;;9.20;99.90;;;;;;5031551;28;20209;-65
2024/02/29 08:42:11;;;;;;;31.23;21.17;;;9.30;99.90;;;;;;5033559;28;20280;-64
2024/02/29 08:44:42;;;;;;;33.37;21.77;;;9.40;99.90;;;;;;5029151;28;20871;-64
2024/02/29 08:47:08;;;;;;;31.87;21.50;;;9.40;99.90;;;;;;5032392;28;20280;-65
2024/02/29 08:49:35;;;;;;;31.27;20.60;;;9.50;99.90;;;;;;5032977;28;20202;-64
2024/02/29 08:52:02;;;;;;;30.97;20.40;;;9.70;99.90;;;;;;5032798;28;20217;-63
2024/02/29 08:54:28;;;;;;;31.13;20.23;;;9.80;99.90;;;;;;5033621;28;20213;-63
2024/02/29 08:56:57;;;;;;;31.63;20.20;;;9.90;99.90;;;;;;5033197;28;20219;-63
2024/02/29 08:59:23;;;;;;;32.27;20.57;;;10.00;99.90;;;;;;5033310;28;20202;-63
2024/02/29 09:01:50;;;;;;;31.80;21.20;;;9.90;99.90;;;;;;5032901;28;20244;-63
2024/02/29 09:04:17;;;;;;;32.53;20.90;;;9.90;99.90;;;;;;5033067;28;20205;-64
2024/02/29 09:06:43;;;;;;;30.33;20.00;;;9.90;99.90;;;;;;5031699;28;20239;-62
2024/02/29 09:09:10;;;;;;;29.50;20.00;;;10.00;99.90;;;;;;5032588;28;20289;-62
2024/02/29 09:11:38;;;;;;;32.00;20.77;;;10.10;99.90;;;;;;5031517;28;20233;-63
2024/02/29 09:14:06;;;;;;;31.43;21.27;;;10.30;99.90;;;;;;5032349;28;20683;-63
2024/02/29 09:16:33;;;;;;;30.70;21.10;;;10.40;99.90;;;;;;5032223;28;20245;-63
2024/02/29 09:19:00;;;;;;;32.00;19.70;;;10.50;99.90;;;;;;5032529;28;20221;-63
2024/02/29 09:21:27;;;;;;;29.53;19.67;;;10.60;99.90;;;;;;5032593;28;20223;-62
2024/02/29 09:23:53;;;;;;;28.47;19.50;;;10.70;99.90;;;;;;5032481;28;20207;-62
2024/02/29 09:26:20;;;;;;;31.73;19.87;;;10.70;99.90;;;;;;5032857;28;20276;-61
2024/02/29 09:28:47;;;;;;;31.63;20.60;;;10.70;99.90;;;;;;5032515;28;20619;-62
2024/02/29 09:31:22;;;;;;;32.77;20.40;;;10.80;99.90;;;;;;5138261;27;20967;-60
2024/02/29 09:33:49;;;;;;;28.30;20.33;;;10.80;99.90;;;;;;5138245;27;20215;-61
2024/02/29 09:36:16;;;;;;;32.33;20.93;;;10.90;99.90;;;;;;5131461;27;20231;-61
2024/02/29 09:38:42;;;;;;;30.53;20.97;;;10.90;99.90;;;;;;5121253;28;20264;-60
2024/02/29 09:41:12;;;;;;;33.00;21.00;;;11.00;99.90;;;;;;5118431;28;20207;-61
2024/02/29 09:43:39;;;;;;;30.63;20.03;;;11.20;99.90;;;;;;5124563;28;20218;-60
2024/02/29 09:46:07;;;;;;;29.10;20.70;;;11.10;99.90;;;;;;5118425;27;20287;-60
2024/02/29 09:48:35;;;;;;;30.47;21.50;;;11.20;99.90;;;;;;5117583;28;20634;-61
2024/02/29 09:51:03;;;;;;;29.53;20.20;;;11.10;99.90;;;;;;5117428;28;20228;-61
2024/02/29 09:53:29;;;;;;;31.37;20.83;;;10.90;99.90;;;;;;5117238;28;20628;-61
2024/02/29 09:55:57;;;;;;;31.97;21.07;;;11.00;99.90;;;;;;5117165;28;20227;-61
2024/02/29 09:58:26;;;;;;;30.57;20.93;;;11.30;99.90;;;;;;5117271;28;20652;-61
2024/02/29 10:00:53;;;;;;;29.17;20.97;;;11.50;99.90;;;;;;5125847;28;20207;-61
2024/02/29 10:03:19;;;;;;;27.47;19.03;;;11.70;99.90;;;;;;5113005;28;20211;-61
2024/02/29 10:05:48;;;;;;;28.43;19.63;;;12.00;99.90;;;;;;5120518;27;20761;-60
2024/02/29 10:08:15;;;;;;;31.00;22.43;;;12.10;99.90;;;;;;5108763;28;20299;-61
2024/02/29 10:10:42;;;;;;;29.13;21.00;;;12.20;99.90;;;;;;5116989;28;20636;-62
2024/02/29 10:13:08;;;;;;;28.10;19.57;;;12.30;99.90;;;;;;5119156;28;20211;-60
2024/02/29 10:15:35;;;;;;;30.17;19.83;;;12.50;99.90;;;;;;5120621;27;20266;-60
2024/02/29 10:18:02;;;;;;;27.90;20.03;;;12.60;99.90;;;;;;5118625;28;20672;-60
2024/02/29 10:20:30;;;;;;;27.67;19.63;;;12.50;99.90;;;;;;5117028;28;20291;-62
2024/02/29 10:22:58;;;;;;;28.50;19.53;;;12.60;99.90;;;;;;5117574;28;20250;-60
2024/02/29 10:25:26;;;;;;;27.80;20.07;;;12.60;99.90;;;;;;5120004;27;20600;-60
2024/02/29 10:28:01;;;;;;;30.90;20.97;;;12.60;99.90;;;;;;5111705;27;20204;-60
2024/02/29 10:30:28;;;;;;;29.60;20.10;;;12.40;99.90;;;;;;5116614;28;20219;-60
2024/02/29 10:32:55;;;;;;;30.83;19.73;;;12.40;99.90;;;;;;5116079;28;20594;-60
2024/02/29 10:35:23;;;;;;;26.93;19.50;;;12.60;99.90;;;;;;5116608;28;20266;-61
2024/02/29 10:37:52;;;;;;;30.53;20.23;;;12.80;99.90;;;;;;5116768;28;20665;-60
2024/02/29 10:40:21;;;;;;;25.77;19.30;;;13.00;99.90;;;;;;5109042;28;20287;-61
2024/02/29 10:42:51;;;;;;;27.73;19.03;;;13.20;99.90;;;;;;5102488;28;20557;-60
2024/02/29 10:45:18;;;;;;;24.93;18.47;;;13.30;99.90;;;;;;5094913;28;20476;-61
2024/02/29 10:47:52;;;;;;;27.57;20.10;;;13.50;99.90;;;;;;5102870;28;20212;-61
2024/02/29 10:50:24;;;;;;;27.33;19.57;;;13.50;99.90;;;;;;5094819;28;20219;-60
2024/02/29 10:52:58;;;;;;;26.97;19.37;;;13.70;99.90;;;;;;5102316;28;20299;-61
2024/02/29 10:55:32;;;;;;;25.70;17.77;;;13.80;99.90;;;;;;5106489;28;20223;-61
2024/02/29 10:58:06;;;;;;;26.37;18.87;;;14.00;99.90;;;;;;5105974;28;20650;-60
2024/02/29 11:00:33;;;;;;;26.37;18.60;;;14.20;99.90;;;;;;5108586;28;20196;-60
2024/02/29 11:03:00;;;;;;;23.70;17.63;;;14.30;99.90;;;;;;5110731;28;20208;-60
2024/02/29 11:05:27;;;;;;;26.03;17.50;;;14.40;99.90;;;;;;5107415;28;20223;-60
2024/02/29 11:07:54;;;;;;;21.00;15.83;;;14.50;99.90;;;;;;5097370;28;20584;-60
2024/02/29 11:10:21;;;;;;;23.83;15.87;;;14.60;99.90;;;;;;5105685;28;20265;-60
2024/02/29 11:12:56;;;;;;;27.17;15.80;;;14.60;99.90;;;;;;5105979;28;20208;-60
2024/02/29 11:15:25;;;;;;;22.33;16.13;;;14.60;99.90;;;;;;5094714;28;20220;-60
2024/02/29 11:17:52;;;;;;;20.43;15.07;;;14.60;99.90;;;;;;5110424;28;20203;-60
2024/02/29 11:20:23;;;;;;;23.20;17.47;;;14.70;99.90;;;;;;5102062;28;20207;-60
2024/02/29 11:22:49;;;;;;;20.13;15.20;;;14.80;99.90;;;;;;5109862;28;20292;-60
2024/02/29 11:25:22;;;;;;;21.03;15.03;;;14.90;99.90;;;;;;5101687;28;20640;-60
2024/02/29 11:27:51;;;;;;;19.50;14.90;;;15.00;99.90;;;;;;5102219;28;20646;-60
2024/02/29 11:30:20;;;;;;;19.50;14.17;;;15.20;99.90;;;;;;5088282;28;20227;-60
2024/02/29 11:32:47;;;;;;;19.13;13.60;;;15.40;99.90;;;;;;5105189;28;20207;-60
2024/02/29 11:35:14;;;;;;;22.70;15.27;;;15.40;99.90;;;;;;5102028;28;20216;-60
2024/02/29 11:37:44;;;;;;;19.30;13.83;;;15.20;99.90;;;;;;5101928;28;20295;-60
2024/02/29 11:40:15;;;;;;;19.17;14.47;;;14.90;99.90;;;;;;5101735;28;20208;-60
2024/02/29 11:42:42;;;;;;;18.80;14.47;;;14.80;99.90;;;;;;5101391;28;20223;-60
2024/02/29 11:45:19;;;;;;;18.43;13.67;;;14.80;99.90;;;;;;5103896;28;20290;-60
2024/02/29 11:47:46;;;;;;;19.03;13.97;;;14.90;99.90;;;;;;5105075;28;20287;-60
2024/02/29 11:50:13;;;;;;;19.20;13.77;;;14.80;99.90;;;;;;5101623;28;20232;-60
2024/02/29 11:52:40;;;;;;;19.83;14.47;;;14.80;99.90;;;;;;5100554;28;20303;-60
2024/02/29 11:55:07;;;;;;;19.20;13.63;;;14.70;99.90;;;;;;5109231;28;20222;-60
2024/02/29 11:57:34;;;;;;;20.97;14.70;;;14.60;99.90;;;;;;5101711;28;20204;-60
2024/02/29 12:00:01;;;;;;;18.07;13.50;;;14.40;99.90;;;;;;5102349;28;20196;-60
2024/02/29 12:02:29;;;;;;;17.87;13.50;;;14.10;99.90;;;;;;5104539;28;20203;-60
2024/02/29 12:04:57;;;;;;;16.97;12.67;;;13.90;99.90;;;;;;5104083;28;20594;-60
2024/02/29 12:07:25;;;;;;;15.20;11.87;;;13.70;99.90;;;;;;5097210;28;20352;-60
2024/02/29 12:09:52;;;;;;;16.33;11.90;;;13.80;99.90;;;;;;5104619;28;20581;-60
2024/02/29 12:12:20;;;;;;;18.07;12.27;;;13.80;99.90;;;;;;5096240;28;20204;-60
2024/02/29 12:14:47;;;;;;;15.47;11.47;;;13.90;99.90;;;;;;5105638;28;20204;-60
2024/02/29 12:17:14;;;;;;;15.70;10.80;;;14.10;99.90;;;;;;5100679;28;20318;-60
2024/02/29 12:19:43;;;;;;;14.17;11.23;;;14.40;99.90;;;;;;5101204;28;20246;-60
2024/02/29 12:22:13;;;;;;;14.77;12.07;;;14.60;99.90;;;;;;5102551;28;20257;-60
2024/02/29 12:24:41;;;;;;;16.70;12.87;;;14.70;99.90;;;;;;5104445;28;20207;-59
2024/02/29 12:27:09;;;;;;;15.57;12.13;;;14.30;99.90;;;;;;5103860;28;20224;-60
2024/02/29 12:29:35;;;;;;;16.13;12.00;;;14.00;99.90;;;;;;5103986;28;20676;-60
2024/02/29 12:32:02;;;;;;;15.20;11.60;;;14.10;99.90;;;;;;5102760;28;20223;-60
2024/02/29 12:34:29;;;;;;;14.20;11.20;;;14.10;99.90;;;;;;5100516;28;20215;-60